createdAt,value
2023-04-04T00:00:29.932Z,9.90
2023-04-04T00:02:56.999Z,9.65
2023-04-04T00:05:24.056Z,9.52
2023-04-04T00:07:51.104Z,9.68
2023-04-04T00:10:17.982Z,9.40
2023-04-04T00:12:44.948Z,10.63
2023-04-04T00:15:12.228Z,9.50
2023-04-04T00:17:39.119Z,10.10
2023-04-04T00:20:06.765Z,10.05
2023-04-04T00:22:33.700Z,10.43
2023-04-04T00:25:00.828Z,9.70
2023-04-04T00:27:27.813Z,9.68
2023-04-04T00:29:54.657Z,9.85
2023-04-04T00:32:21.856Z,10.15
2023-04-04T00:34:54.946Z,9.77
2023-04-04T00:37:22.164Z,9.75
2023-04-04T00:39:50.153Z,9.93
2023-04-04T00:42:17.260Z,10.18
2023-04-04T00:44:44.162Z,10.50
2023-04-04T00:47:11.327Z,10.95
2023-04-04T00:49:38.279Z,10.90
2023-04-04T00:52:07.384Z,10.57
2023-04-04T00:54:35.045Z,11.30
2023-04-04T00:57:02.293Z,10.35
2023-04-04T00:59:29.383Z,10.13
2023-04-04T01:01:56.751Z,10.38
2023-04-04T01:04:23.728Z,9.75
2023-04-04T01:06:51.047Z,9.65
2023-04-04T01:09:17.875Z,9.88
2023-04-04T01:11:44.803Z,11.23
2023-04-04T01:14:11.947Z,9.70
2023-04-04T01:16:39.954Z,9.98
2023-04-04T01:19:08.908Z,10.50
2023-04-04T01:21:36.248Z,10.23
2023-04-04T01:24:04.612Z,10.70
2023-04-04T01:26:51.469Z,10.05
2023-04-04T01:29:18.489Z,10.40
2023-04-04T01:32:17.151Z,9.93
2023-04-04T01:34:54.325Z,9.90
2023-04-04T01:37:28.062Z,10.60
2023-04-04T01:40:09.641Z,9.60
2023-04-04T01:42:36.962Z,10.07
2023-04-04T01:45:04.755Z,9.82
2023-04-04T01:47:39.374Z,9.18
2023-04-04T01:50:11.121Z,9.38
2023-04-04T01:52:38.572Z,10.25
2023-04-04T01:55:06.005Z,9.63
2023-04-04T01:57:33.764Z,9.52
2023-04-04T02:00:00.691Z,9.25
2023-04-04T02:02:27.825Z,10.63
2023-04-04T02:04:55.472Z,10.15
2023-04-04T02:07:22.497Z,10.18
2023-04-04T02:09:49.590Z,10.32
2023-04-04T02:12:16.544Z,11.05
2023-04-04T02:14:43.512Z,10.98
2023-04-04T02:17:10.898Z,11.00
2023-04-04T02:19:38.362Z,10.88
2023-04-04T02:22:06.104Z,11.27
2023-04-04T02:24:33.030Z,10.40
2023-04-04T02:27:00.044Z,11.32
2023-04-04T02:29:27.213Z,11.23
2023-04-04T02:31:54.165Z,10.02
2023-04-04T02:34:21.432Z,11.38
2023-04-04T02:36:51.844Z,11.85
2023-04-04T02:39:23.080Z,10.55
2023-04-04T02:41:51.388Z,10.68
2023-04-04T02:44:18.291Z,10.55
2023-04-04T02:46:46.856Z,10.30
2023-04-04T02:49:15.803Z,10.98
2023-04-04T02:51:47.804Z,10.75
2023-04-04T02:54:15.128Z,10.23
2023-04-04T02:56:45.251Z,10.50
2023-04-04T02:59:12.411Z,11.27
2023-04-04T03:01:39.506Z,11.45
2023-04-04T03:04:07.149Z,10.70
2023-04-04T03:06:35.462Z,12.48
2023-04-04T03:09:04.612Z,10.70
2023-04-04T03:11:31.974Z,11.63
2023-04-04T03:13:58.874Z,11.48
2023-04-04T03:16:33.049Z,11.13
2023-04-04T03:19:00.024Z,11.25
2023-04-04T03:21:30.136Z,11.10
2023-04-04T03:23:58.501Z,11.23
2023-04-04T03:26:25.599Z,11.75
2023-04-04T03:28:52.950Z,11.77
2023-04-04T03:31:22.085Z,11.40
2023-04-04T03:33:49.215Z,11.05
2023-04-04T03:36:16.775Z,10.77
2023-04-04T03:38:47.660Z,12.35
2023-04-04T03:41:15.392Z,11.20
2023-04-04T03:43:42.275Z,11.40
2023-04-04T03:46:09.215Z,12.20
2023-04-04T03:48:36.250Z,11.27
2023-04-04T03:51:06.814Z,12.57
2023-04-04T03:53:35.863Z,11.88
2023-04-04T03:56:02.863Z,11.18
2023-04-04T03:58:30.336Z,11.82
2023-04-04T04:00:57.218Z,11.88
2023-04-04T04:03:28.722Z,11.88
2023-04-04T04:05:55.823Z,11.38
2023-04-04T04:08:24.067Z,12.20
2023-04-04T04:10:52.233Z,12.85
2023-04-04T04:13:19.189Z,11.45
2023-04-04T04:15:46.320Z,11.32
2023-04-04T04:18:18.345Z,11.25
2023-04-04T04:20:45.811Z,11.55
2023-04-04T04:23:12.735Z,11.05
2023-04-04T04:25:40.507Z,11.05
2023-04-04T04:30:44.398Z,11.02
2023-04-04T04:33:13.009Z,11.38
2023-04-04T04:35:52.478Z,10.65
2023-04-04T04:38:21.556Z,10.38
2023-04-04T04:40:49.787Z,11.43
2023-04-04T04:43:24.382Z,11.63
2023-04-04T04:45:51.804Z,11.70
2023-04-04T04:48:18.830Z,11.35
2023-04-04T04:50:50.657Z,11.15
2023-04-04T04:53:28.009Z,12.15
2023-04-04T04:55:55.087Z,11.80
2023-04-04T04:58:24.687Z,12.15
2023-04-04T05:00:56.801Z,12.32
2023-04-04T05:03:24.959Z,12.57
2023-04-04T05:05:52.450Z,12.80
2023-04-04T05:08:19.767Z,12.52
2023-04-04T05:11:04.727Z,13.63
2023-04-04T05:13:32.968Z,13.27
2023-04-04T05:16:00.406Z,12.88
2023-04-04T05:18:28.432Z,13.13
2023-04-04T05:20:56.015Z,12.60
2023-04-04T05:23:26.519Z,14.20
2023-04-04T05:25:54.405Z,13.57
2023-04-04T05:28:23.645Z,13.45
2023-04-04T05:30:53.620Z,13.32
2023-04-04T05:33:24.810Z,12.32
2023-04-04T05:36:01.966Z,13.27
2023-04-04T05:38:31.480Z,15.20
2023-04-04T05:40:58.410Z,14.32
2023-04-04T05:43:26.345Z,13.52
2023-04-04T05:46:07.738Z,12.95
2023-04-04T05:48:50.247Z,13.18
2023-04-04T05:51:17.791Z,12.93
2023-04-04T05:53:54.460Z,13.18
2023-04-04T05:56:26.483Z,12.15
2023-04-04T05:58:55.753Z,12.65
2023-04-04T06:01:23.314Z,12.90
2023-04-04T06:03:53.194Z,12.40
2023-04-04T06:06:25.206Z,11.77
2023-04-04T06:08:53.776Z,11.15
2023-04-04T06:11:23.095Z,11.80
2023-04-04T06:13:51.553Z,12.85
2023-04-04T06:16:21.549Z,12.10
2023-04-04T06:18:48.825Z,12.23
2023-04-04T06:21:15.937Z,12.60
2023-04-04T06:23:42.841Z,16.00
2023-04-04T06:26:09.835Z,23.13
2023-04-04T06:28:47.131Z,21.80
2023-04-04T06:31:14.460Z,20.50
2023-04-04T06:33:41.395Z,21.48
2023-04-04T06:36:08.597Z,22.83
2023-04-04T06:38:35.637Z,16.27
2023-04-04T06:41:06.868Z,15.45
2023-04-04T06:43:33.860Z,15.30
2023-04-04T06:46:01.320Z,14.45
2023-04-04T06:48:28.252Z,13.75
2023-04-04T06:50:55.724Z,12.38
2023-04-04T06:53:23.862Z,10.98
2023-04-04T06:55:51.796Z,11.43
2023-04-04T06:58:18.812Z,11.50
2023-04-04T07:00:46.282Z,9.73
2023-04-04T07:03:13.267Z,9.02
2023-04-04T07:05:40.110Z,9.32
2023-04-04T07:08:07.157Z,9.88
2023-04-04T07:10:33.982Z,9.35
2023-04-04T07:13:01.062Z,9.35
2023-04-04T07:15:28.247Z,8.93
2023-04-04T07:17:55.384Z,8.85
2023-04-04T07:20:22.406Z,9.52
2023-04-04T07:22:49.464Z,9.48
2023-04-04T07:25:16.791Z,9.25
2023-04-04T07:27:43.691Z,8.02
2023-04-04T07:30:11.877Z,7.65
2023-04-04T07:32:39.076Z,7.18
2023-04-04T07:35:07.084Z,7.15
2023-04-04T07:37:37.024Z,6.85
2023-04-04T07:40:08.845Z,6.90
2023-04-04T07:42:36.055Z,7.15
2023-04-04T07:45:03.128Z,7.13
2023-04-04T07:47:30.378Z,7.10
2023-04-04T07:49:57.300Z,6.57
2023-04-04T07:52:24.210Z,6.90
2023-04-04T07:54:52.455Z,6.95
2023-04-04T07:57:19.424Z,7.43
2023-04-04T07:59:46.361Z,7.15
2023-04-04T08:02:13.566Z,6.85
2023-04-04T08:04:40.649Z,7.32
2023-04-04T08:07:07.545Z,7.40
2023-04-04T08:09:36.424Z,6.70
2023-04-04T08:12:03.709Z,6.80
2023-04-04T08:14:31.458Z,6.70
2023-04-04T08:16:58.552Z,7.35
2023-04-04T08:19:25.556Z,7.68
2023-04-04T08:21:52.571Z,7.30
2023-04-04T08:24:19.606Z,7.60
2023-04-04T08:26:54.658Z,6.97
2023-04-04T08:29:29.552Z,6.35
2023-04-04T08:31:56.637Z,7.07
2023-04-04T08:34:23.736Z,6.55
2023-04-04T08:36:50.674Z,6.03
2023-04-04T08:39:17.706Z,7.05
2023-04-04T08:41:45.721Z,6.90
2023-04-04T08:44:17.370Z,6.43
2023-04-04T08:46:45.868Z,6.05
2023-04-04T08:49:16.921Z,6.25
2023-04-04T08:51:44.835Z,6.03
2023-04-04T08:54:12.059Z,6.25
2023-04-04T08:56:39.056Z,6.00
2023-04-04T08:59:06.048Z,6.20
2023-04-04T09:01:33.448Z,6.38
2023-04-04T09:04:00.851Z,6.45
2023-04-04T09:06:28.085Z,5.88
2023-04-04T09:08:55.061Z,5.85
2023-04-04T09:11:21.967Z,5.63
2023-04-04T09:13:49.189Z,6.72
2023-04-04T09:16:16.098Z,6.40
2023-04-04T09:18:43.613Z,6.28
2023-04-04T09:21:11.974Z,6.05
2023-04-04T09:23:38.947Z,6.15
2023-04-04T09:26:06.204Z,4.30
2023-04-04T09:28:36.712Z,4.13
2023-04-04T09:31:05.832Z,3.88
2023-04-04T09:33:35.913Z,4.03
2023-04-04T09:36:05.360Z,4.00
2023-04-04T09:38:32.542Z,4.25
2023-04-04T09:40:59.547Z,4.38
2023-04-04T09:43:26.594Z,4.55
2023-04-04T09:45:54.951Z,4.90
2023-04-04T09:48:35.391Z,4.30
2023-04-04T09:51:06.654Z,4.10
2023-04-04T09:53:39.965Z,3.58
2023-04-04T09:56:07.186Z,3.95
2023-04-04T09:58:37.274Z,4.22
2023-04-04T10:01:09.016Z,4.53
2023-04-04T10:03:37.012Z,4.05
2023-04-04T10:06:07.175Z,4.40
2023-04-04T10:08:34.670Z,4.05
2023-04-04T10:11:11.312Z,4.18
2023-04-04T10:13:44.723Z,4.05
2023-04-04T10:16:12.083Z,4.82
2023-04-04T10:18:39.787Z,3.90
2023-04-04T10:23:39.073Z,4.72
2023-04-04T10:26:06.673Z,4.80
2023-04-04T10:28:34.599Z,4.72
2023-04-04T10:31:20.267Z,4.20
2023-04-04T10:34:22.442Z,4.13
2023-04-04T10:36:50.712Z,4.80
2023-04-04T10:39:29.817Z,4.15
2023-04-04T10:41:56.930Z,4.43
2023-04-04T10:44:30.205Z,4.35
2023-04-04T10:46:59.007Z,4.25
2023-04-04T10:49:26.227Z,4.13
2023-04-04T10:51:56.392Z,4.53
2023-04-04T10:54:29.213Z,4.47
2023-04-04T10:57:00.685Z,4.30
2023-04-04T10:59:28.482Z,4.55
2023-04-04T11:01:58.238Z,4.30
2023-04-04T11:04:35.807Z,4.20
2023-04-04T11:07:18.202Z,4.40
2023-04-04T11:09:55.601Z,4.70
2023-04-04T11:12:33.710Z,4.70
2023-04-04T11:15:03.936Z,4.88
2023-04-04T11:17:49.434Z,4.40
2023-04-04T11:20:17.873Z,4.80
2023-04-04T11:22:45.694Z,5.20
2023-04-04T11:25:27.672Z,5.03
2023-04-04T11:27:55.010Z,4.15
2023-04-04T11:30:22.197Z,4.75
2023-04-04T11:32:59.913Z,5.13
2023-04-04T11:35:33.726Z,4.70
2023-04-04T11:38:01.100Z,4.30
2023-04-04T11:40:35.366Z,4.70
2023-04-04T11:43:04.004Z,4.60
2023-04-04T11:45:33.811Z,4.55
2023-04-04T11:48:01.433Z,4.85
2023-04-04T11:50:29.568Z,4.65
2023-04-04T11:52:59.190Z,4.65
2023-04-04T11:55:26.697Z,4.30
2023-04-04T11:57:55.675Z,4.90
2023-04-04T12:00:37.027Z,4.38
2023-04-04T12:03:05.714Z,4.57
2023-04-04T12:05:32.952Z,4.30
2023-04-04T12:08:02.332Z,4.43
2023-04-04T12:10:31.685Z,3.95
2023-04-04T12:12:59.119Z,4.07
2023-04-04T12:15:28.193Z,3.90
2023-04-04T12:17:55.569Z,4.10
2023-04-04T12:20:24.277Z,4.32
2023-04-04T12:22:54.480Z,3.80
2023-04-04T12:25:22.728Z,4.43
2023-04-04T12:27:50.112Z,3.92
2023-04-04T12:30:17.175Z,4.38
2023-04-04T12:32:45.065Z,4.63
2023-04-04T12:35:13.477Z,4.50
2023-04-04T12:37:41.261Z,4.45
2023-04-04T12:40:08.398Z,4.30
2023-04-04T12:42:35.593Z,4.35
2023-04-04T12:45:04.119Z,4.57
2023-04-04T12:47:31.457Z,4.97
2023-04-04T12:49:58.568Z,4.68
2023-04-04T12:52:32.198Z,4.60
2023-04-04T12:55:09.701Z,4.35
2023-04-04T12:57:38.322Z,4.32
2023-04-04T13:00:07.885Z,4.38
2023-04-04T13:02:35.753Z,4.22
2023-04-04T13:05:02.837Z,4.43
2023-04-04T13:07:34.962Z,5.28
2023-04-04T13:10:03.957Z,5.15
2023-04-04T13:12:59.643Z,4.43
2023-04-04T13:15:49.302Z,4.80
2023-04-04T13:18:24.707Z,4.70
2023-04-04T13:20:52.319Z,4.93
2023-04-04T13:23:19.340Z,5.20
2023-04-04T13:25:46.275Z,5.18
2023-04-04T13:28:13.301Z,4.75
2023-04-04T13:30:43.814Z,4.45
2023-04-04T13:33:11.261Z,4.80
2023-04-04T13:35:38.788Z,4.78
2023-04-04T13:38:06.027Z,4.60
2023-04-04T13:40:33.083Z,5.25
2023-04-04T13:43:00.114Z,4.85
2023-04-04T13:45:27.029Z,4.80
2023-04-04T13:47:54.049Z,5.15
2023-04-04T13:50:22.207Z,4.82
2023-04-04T13:52:51.991Z,4.55
2023-04-04T13:55:18.998Z,4.70
2023-04-04T13:57:46.161Z,4.80
2023-04-04T14:00:13.669Z,4.75
2023-04-04T14:02:40.689Z,5.00
2023-04-04T14:05:08.191Z,4.65
2023-04-04T14:07:37.792Z,4.38
2023-04-04T14:10:05.471Z,4.97
2023-04-04T14:12:32.412Z,4.75
2023-04-04T14:14:59.371Z,4.25
2023-04-04T14:17:26.499Z,4.47
2023-04-04T14:19:53.512Z,4.60
2023-04-04T14:22:20.425Z,4.68
2023-04-04T14:24:47.350Z,4.15
2023-04-04T14:27:14.315Z,5.13
2023-04-04T14:29:41.489Z,4.78
2023-04-04T14:32:08.585Z,4.47
2023-04-04T14:34:35.682Z,5.15
2023-04-04T14:37:02.731Z,5.10
2023-04-04T14:39:29.821Z,4.55
2023-04-04T14:41:57.203Z,4.50
2023-04-04T14:44:25.228Z,4.30
2023-04-04T14:46:55.372Z,5.35
2023-04-04T14:49:22.875Z,4.72
2023-04-04T14:51:51.075Z,5.85
2023-04-04T14:54:18.053Z,5.43
2023-04-04T14:56:45.747Z,4.78
2023-04-04T14:59:12.976Z,4.40
2023-04-04T15:01:40.225Z,4.45
2023-04-04T15:04:07.403Z,5.05
2023-04-04T15:06:37.935Z,4.80
2023-04-04T15:09:08.760Z,4.97
2023-04-04T15:11:36.177Z,4.53
2023-04-04T15:14:03.233Z,4.22
2023-04-04T15:16:33.237Z,4.20
2023-04-04T15:19:01.003Z,4.60
2023-04-04T15:21:31.784Z,5.28
2023-04-04T15:23:58.823Z,4.47
2023-04-04T15:26:26.160Z,4.97
2023-04-04T15:28:53.177Z,4.82
2023-04-04T15:31:20.972Z,5.10
2023-04-04T15:33:48.489Z,4.60
2023-04-04T15:36:16.602Z,4.93
2023-04-04T15:38:43.506Z,4.95
2023-04-04T15:41:10.509Z,5.47
2023-04-04T15:43:37.487Z,5.25
2023-04-04T15:46:04.912Z,7.05
2023-04-04T15:48:32.172Z,6.50
2023-04-04T15:51:02.635Z,5.97
2023-04-04T15:53:32.520Z,6.47
2023-04-04T15:55:59.581Z,5.90
2023-04-04T15:58:26.541Z,6.50
2023-04-04T16:00:53.534Z,7.07
2023-04-04T16:03:20.678Z,7.55
2023-04-04T16:05:48.191Z,7.55
2023-04-04T16:08:15.127Z,8.00
2023-04-04T16:10:44.134Z,8.00
2023-04-04T16:13:11.374Z,7.15
2023-04-04T16:15:38.507Z,7.82
2023-04-04T16:18:05.633Z,8.02
2023-04-04T16:20:32.566Z,8.82
2023-04-04T16:22:59.506Z,9.43
2023-04-04T16:25:27.094Z,9.65
2023-04-04T16:27:54.156Z,9.57
2023-04-04T16:30:21.165Z,10.27
2023-04-04T16:32:48.171Z,9.88
2023-04-04T16:35:15.257Z,11.13
2023-04-04T16:37:42.167Z,10.13
2023-04-04T16:40:09.532Z,10.50
2023-04-04T16:42:36.579Z,10.07
2023-04-04T16:45:03.890Z,10.57
2023-04-04T16:47:30.838Z,10.75
2023-04-04T16:49:58.734Z,9.93
2023-04-04T16:52:25.619Z,9.30
2023-04-04T16:54:54.557Z,9.63
2023-04-04T16:57:21.468Z,9.63
2023-04-04T16:59:48.470Z,9.27
2023-04-04T17:02:15.548Z,8.57
2023-04-04T17:04:42.518Z,9.20
2023-04-04T17:07:09.519Z,9.40
2023-04-04T17:09:37.066Z,10.85
2023-04-04T17:12:04.014Z,10.38
2023-04-04T17:14:31.082Z,11.05
2023-04-04T17:17:00.669Z,10.25
2023-04-04T17:19:30.109Z,11.18
2023-04-04T17:21:58.272Z,11.40
2023-04-04T17:24:27.968Z,11.35
2023-04-04T17:26:57.021Z,11.82
2023-04-04T17:29:26.909Z,13.55
2023-04-04T17:31:55.098Z,12.80
2023-04-04T17:34:22.409Z,12.93
2023-04-04T17:36:51.321Z,14.02
2023-04-04T17:39:18.444Z,13.93
2023-04-04T17:41:48.684Z,13.60
2023-04-04T17:44:16.425Z,12.23
2023-04-04T17:46:43.417Z,11.40
2023-04-04T17:49:10.478Z,11.20
2023-04-04T17:51:37.570Z,11.38
2023-04-04T17:54:05.296Z,10.57
2023-04-04T17:56:32.596Z,10.05
2023-04-04T17:58:59.682Z,9.93
2023-04-04T18:01:28.116Z,10.27
2023-04-04T18:03:55.862Z,10.15
2023-04-04T18:06:23.980Z,9.38
2023-04-04T18:08:51.186Z,9.25
2023-04-04T18:11:18.077Z,9.38
2023-04-04T18:13:45.211Z,9.15
2023-04-04T18:16:12.313Z,9.13
2023-04-04T18:18:40.495Z,9.23
2023-04-04T18:21:08.561Z,9.07
2023-04-04T18:23:35.603Z,9.02
2023-04-04T18:26:02.675Z,9.15
2023-04-04T18:28:29.755Z,7.72
2023-04-04T18:30:56.737Z,9.15
2023-04-04T18:33:25.102Z,8.00
2023-04-04T18:35:52.082Z,8.18
2023-04-04T18:38:19.497Z,8.20
2023-04-04T18:40:46.685Z,8.13
2023-04-04T18:43:13.936Z,8.27
2023-04-04T18:45:41.610Z,8.70
2023-04-04T18:48:08.785Z,8.88
2023-04-04T18:50:36.084Z,8.60
2023-04-04T18:53:03.082Z,8.77
2023-04-04T18:55:30.052Z,8.63
2023-04-04T18:57:57.576Z,8.88
2023-04-04T19:00:24.704Z,8.82
2023-04-04T19:02:51.877Z,9.38
2023-04-04T19:05:23.403Z,8.70
2023-04-04T19:07:51.614Z,8.95
2023-04-04T19:10:18.514Z,8.00
2023-04-04T19:12:45.512Z,9.07
2023-04-04T19:15:12.741Z,9.13
2023-04-04T19:17:40.111Z,8.15
2023-04-04T19:20:08.361Z,8.00
2023-04-04T19:22:35.652Z,8.30
2023-04-04T19:25:02.578Z,8.75
2023-04-04T19:27:29.650Z,8.88
2023-04-04T19:29:56.552Z,10.20
2023-04-04T19:32:24.927Z,10.02
2023-04-04T19:34:52.393Z,10.00
2023-04-04T19:37:19.298Z,10.65
2023-04-04T19:39:46.461Z,11.35
2023-04-04T19:42:13.377Z,12.63
2023-04-04T19:44:40.971Z,12.23
2023-04-04T19:47:09.991Z,12.48
2023-04-04T19:49:38.228Z,11.40
2023-04-04T19:52:05.674Z,11.38
2023-04-04T19:54:43.058Z,10.55
2023-04-04T19:57:23.503Z,9.98
2023-04-04T20:00:11.039Z,10.88
2023-04-04T20:02:47.914Z,11.43
2023-04-04T20:05:32.218Z,11.35
2023-04-04T20:08:00.244Z,10.70
2023-04-04T20:10:37.490Z,11.15
2023-04-04T20:13:07.269Z,10.40
2023-04-04T20:15:43.760Z,10.73
2023-04-04T20:18:10.839Z,9.65
2023-04-04T20:21:12.738Z,10.60
2023-04-04T20:23:58.238Z,11.18
2023-04-04T20:26:54.637Z,12.50
2023-04-04T20:29:27.153Z,12.60
2023-04-04T20:31:55.964Z,14.07
2023-04-04T20:34:37.154Z,14.45
2023-04-04T20:37:07.766Z,13.82
2023-04-04T20:39:41.215Z,13.15
2023-04-04T20:42:18.330Z,12.95
2023-04-04T20:44:46.152Z,12.65
2023-04-04T20:47:43.393Z,14.10
2023-04-04T20:50:16.262Z,14.32
2023-04-04T20:52:46.567Z,13.95
2023-04-04T20:55:13.484Z,14.20
2023-04-04T20:57:40.497Z,13.48
2023-04-04T21:00:28.305Z,13.48
2023-04-04T21:02:59.480Z,13.20
2023-04-04T21:05:31.278Z,13.60
2023-04-04T21:07:58.736Z,14.32
2023-04-04T21:10:28.591Z,13.88
2023-04-04T21:12:59.406Z,14.15
2023-04-04T21:15:30.148Z,14.05
2023-04-04T21:17:59.244Z,13.55
2023-04-04T21:20:44.942Z,13.57
2023-04-04T21:23:33.243Z,13.32
2023-04-04T21:26:02.025Z,13.60
2023-04-04T21:28:39.456Z,13.57
2023-04-04T21:31:14.101Z,13.48
2023-04-04T21:33:44.959Z,13.25
2023-04-04T21:36:21.436Z,13.48
2023-04-04T21:38:48.350Z,13.23
2023-04-04T21:41:27.192Z,12.43
2023-04-04T21:43:54.827Z,13.43
2023-04-04T21:46:25.717Z,13.13
2023-04-04T21:48:53.077Z,12.25
2023-04-04T21:51:20.055Z,12.00
2023-04-04T21:53:47.031Z,12.65
2023-04-04T21:56:14.044Z,12.25
2023-04-04T21:58:41.528Z,12.52
2023-04-04T22:01:08.679Z,12.98
2023-04-04T22:03:37.459Z,12.90
2023-04-04T22:06:04.731Z,13.82
2023-04-04T22:08:31.696Z,13.55
2023-04-04T22:11:01.857Z,13.80
2023-04-04T22:13:35.289Z,13.25
2023-04-04T22:16:04.636Z,13.32
2023-04-04T22:18:33.214Z,13.10
2023-04-04T22:21:04.410Z,12.77
2023-04-04T22:23:37.796Z,13.23
2023-04-04T22:26:05.455Z,12.80
2023-04-04T22:28:33.471Z,13.05
2023-04-04T22:31:01.833Z,12.85
2023-04-04T22:33:29.895Z,13.07
2023-04-04T22:35:58.060Z,12.98
2023-04-04T22:38:25.774Z,11.95
2023-04-04T22:40:52.783Z,12.70
2023-04-04T22:43:20.492Z,13.25
2023-04-04T22:45:47.554Z,13.27
2023-04-04T22:48:17.333Z,13.43
2023-04-04T22:50:49.888Z,13.32
2023-04-04T22:53:24.703Z,13.68
2023-04-04T22:55:52.763Z,13.57
2023-04-04T22:58:20.998Z,13.82
2023-04-04T23:00:48.097Z,13.48
2023-04-04T23:03:15.028Z,13.27
2023-04-04T23:05:42.238Z,14.05
2023-04-04T23:08:09.195Z,14.48
2023-04-04T23:10:36.872Z,13.85
2023-04-04T23:13:03.881Z,13.85
2023-04-04T23:15:33.158Z,13.68
2023-04-04T23:18:00.146Z,13.93
2023-04-04T23:20:28.046Z,13.45
2023-04-04T23:22:55.059Z,14.50
2023-04-04T23:25:21.862Z,13.52
2023-04-04T23:27:48.747Z,13.32
2023-04-04T23:30:15.860Z,13.63
2023-04-04T23:32:42.862Z,13.85
2023-04-04T23:35:09.975Z,13.57
2023-04-04T23:37:36.951Z,13.57
2023-04-04T23:40:05.478Z,14.23
2023-04-04T23:42:32.408Z,14.52
2023-04-04T23:45:01.085Z,14.13
2023-04-04T23:47:28.194Z,14.95
2023-04-04T23:49:55.293Z,14.13
2023-04-04T23:52:22.229Z,15.10
2023-04-04T23:54:49.264Z,15.65
2023-04-04T23:57:16.679Z,13.38
2023-04-04T23:59:43.504Z,14.70
